Time;durP1;ratioP1;P1;durP2;ratioP2;P2;SDS_P1;SDS_P2;PMS_P1;PMS_P2;Temp;Humidity;BMP_temperature;BMP_pressure;BME280_temperature;BME280_humidity;BME280_pressure;Samples;Min_cycle;Max_cycle;Signal;HPM_P1;HPM_P2
2023/04/05 00:03:46;;;;;;;;;;;19.20;44.80;;;;;;10331910;28;877;-80
2023/04/05 00:08:43;;;;;;;;;;;19.20;44.80;;;;;;10331707;28;774;-72
2023/04/05 00:13:38;;;;;;;;;;;19.10;44.80;;;;;;10330961;28;780;-72
2023/04/05 00:18:34;;;;;;;;;;;19.10;44.70;;;;;;10330675;28;986;-72
2023/04/05 00:23:36;;;;;;;;;;;19.10;44.60;;;;;;10330487;28;1898;-72
2023/04/05 00:28:31;;;;;;;;;;;19.00;44.70;;;;;;10331211;28;985;-72
2023/04/05 00:33:27;;;;;;;;;;;19.10;44.40;;;;;;10330826;28;848;-72
2023/04/05 00:38:22;;;;;;;;;;;19.00;44.40;;;;;;10330011;28;877;-72
2023/04/05 00:43:17;;;;;;;;;;;19.10;44.40;;;;;;10329753;28;1898;-72
2023/04/05 00:48:13;;;;;;;;;;;19.10;44.40;;;;;;10329660;28;946;-72
2023/04/05 00:53:08;;;;;;;;;;;19.00;44.30;;;;;;10329436;28;806;-72
2023/04/05 00:58:05;;;;;;;;;;;19.00;44.30;;;;;;10330154;28;1363;-72
2023/04/05 01:03:00;;;;;;;;;;;19.00;44.10;;;;;;10328295;28;1909;-72
2023/04/05 01:07:56;;;;;;;;;;;19.00;44.20;;;;;;10328694;28;969;-72
2023/04/05 01:12:51;;;;;;;;;;;19.00;44.30;;;;;;10327646;28;749;-72
2023/04/05 01:17:47;;;;;;;;;;;19.00;44.20;;;;;;10329216;28;802;-72
2023/04/05 01:22:43;;;;;;;;;;;19.00;44.10;;;;;;10328810;28;1902;-72
2023/04/05 01:27:38;;;;;;;;;;;19.00;44.00;;;;;;10328609;28;858;-72
2023/04/05 01:32:33;;;;;;;;;;;18.90;44.10;;;;;;10327252;28;1194;-72
2023/04/05 01:37:29;;;;;;;;;;;19.00;44.10;;;;;;10327051;28;880;-72
2023/04/05 01:42:24;;;;;;;;;;;18.90;44.10;;;;;;10328013;28;1965;-72
2023/04/05 01:47:20;;;;;;;;;;;19.00;44.10;;;;;;10327267;28;783;-72
2023/04/05 01:52:15;;;;;;;;;;;18.90;43.90;;;;;;10327399;28;863;-72
2023/04/05 01:57:11;;;;;;;;;;;19.00;44.00;;;;;;10327083;28;1475;-72
2023/04/05 02:02:06;;;;;;;;;;;18.90;44.10;;;;;;10327212;28;1976;-72
2023/04/05 02:07:02;;;;;;;;;;;18.90;43.90;;;;;;10327128;28;845;-72
2023/04/05 02:11:57;;;;;;;;;;;18.90;44.00;;;;;;10326285;28;894;-72
2023/04/05 02:16:54;;;;;;;;;;;18.90;43.90;;;;;;10326239;28;971;-72
2023/04/05 02:21:52;;;;;;;;;;;18.90;44.00;;;;;;10325868;28;1890;-72
2023/04/05 02:26:47;;;;;;;;;;;18.90;43.80;;;;;;10325881;28;945;-72
2023/04/05 02:31:43;;;;;;;;;;;18.90;43.80;;;;;;10325871;28;834;-72
2023/04/05 02:36:40;;;;;;;;;;;18.90;43.80;;;;;;10326925;28;866;-72
2023/04/05 02:41:36;;;;;;;;;;;18.90;43.80;;;;;;10326544;28;1901;-72
2023/04/05 02:46:31;;;;;;;;;;;18.80;43.70;;;;;;10326090;28;890;-72
2023/04/05 02:51:26;;;;;;;;;;;18.80;43.80;;;;;;10325449;28;850;-72
2023/04/05 02:56:22;;;;;;;;;;;18.80;43.80;;;;;;10325380;28;1223;-72
2023/04/05 03:01:19;;;;;;;;;;;18.80;43.70;;;;;;10325144;28;1967;-72
2023/04/05 03:06:14;;;;;;;;;;;18.80;43.70;;;;;;10325100;28;845;-72
2023/04/05 03:11:09;;;;;;;;;;;18.80;43.70;;;;;;10325701;28;833;-72
2023/04/05 03:16:05;;;;;;;;;;;18.80;43.80;;;;;;10324506;28;767;-72
2023/04/05 03:21:00;;;;;;;;;;;18.80;43.70;;;;;;10324769;28;1966;-72
2023/04/05 03:25:56;;;;;;;;;;;18.80;43.70;;;;;;10325404;28;945;-72
2023/04/05 03:30:51;;;;;;;;;;;18.80;43.70;;;;;;10324568;28;875;-72
2023/04/05 03:35:46;;;;;;;;;;;18.70;43.70;;;;;;10331004;28;926;-72
2023/04/05 03:40:42;;;;;;;;;;;18.70;43.60;;;;;;10332900;28;1902;-72
2023/04/05 03:45:37;;;;;;;;;;;18.80;43.50;;;;;;10332605;28;833;-72
2023/04/05 03:50:32;;;;;;;;;;;18.70;43.50;;;;;;10331869;28;841;-72
2023/04/05 03:55:28;;;;;;;;;;;18.70;43.60;;;;;;10332691;28;1351;-72
2023/04/05 04:00:23;;;;;;;;;;;18.70;43.60;;;;;;10331376;28;1979;-72
2023/04/05 04:05:19;;;;;;;;;;;18.70;43.50;;;;;;10332518;28;888;-72
2023/04/05 04:10:16;;;;;;;;;;;18.80;43.50;;;;;;10331103;28;854;-72
2023/04/05 04:15:12;;;;;;;;;;;18.70;43.60;;;;;;10330946;28;767;-72
2023/04/05 04:20:09;;;;;;;;;;;18.80;43.50;;;;;;10330690;28;1960;-72
2023/04/05 04:25:08;;;;;;;;;;;18.80;43.50;;;;;;10330628;28;987;-72
2023/04/05 04:30:04;;;;;;;;;;;18.80;43.50;;;;;;10330405;28;833;-72
2023/04/05 04:35:03;;;;;;;;;;;18.70;43.60;;;;;;10330161;28;854;-72
2023/04/05 04:40:05;;;;;;;;;;;18.80;43.50;;;;;;10330005;28;1906;-72
2023/04/05 04:45:01;;;;;;;;;;;18.80;43.40;;;;;;10330814;28;1593;-72
2023/04/05 04:49:58;;;;;;;;;;;18.70;43.50;;;;;;10330166;28;1630;-72
2023/04/05 04:54:53;;;;;;;;;;;18.80;43.50;;;;;;10329182;28;1319;-72
2023/04/05 04:59:48;;;;;;;;;;;18.80;43.50;;;;;;10329179;28;1898;-72
2023/04/05 05:04:44;;;;;;;;;;;18.80;43.50;;;;;;10329062;28;897;-72
2023/04/05 05:09:39;;;;;;;;;;;18.80;43.60;;;;;;10328761;28;780;-72
2023/04/05 05:14:35;;;;;;;;;;;18.80;43.50;;;;;;10328708;28;798;-72
2023/04/05 05:19:30;;;;;;;;;;;18.80;43.50;;;;;;10328405;28;1901;-72
2023/04/05 05:24:26;;;;;;;;;;;18.70;43.60;;;;;;10328256;28;860;-72
2023/04/05 05:29:21;;;;;;;;;;;18.80;43.60;;;;;;10328605;28;811;-72
2023/04/05 05:34:18;;;;;;;;;;;18.80;43.60;;;;;;10328439;28;786;-72
2023/04/05 05:39:13;;;;;;;;;;;18.80;43.50;;;;;;10327500;28;1967;-72
2023/04/05 05:44:08;;;;;;;;;;;18.80;43.40;;;;;;10327562;28;871;-71
2023/04/05 05:49:04;;;;;;;;;;;18.70;43.50;;;;;;10326636;28;821;-71
2023/04/05 05:54:00;;;;;;;;;;;18.80;43.50;;;;;;10327026;28;892;-72
2023/04/05 05:58:55;;;;;;;;;;;18.80;43.40;;;;;;10325679;28;1274;-72
2023/04/05 06:03:50;;;;;;;;;;;18.80;43.30;;;;;;10327298;28;874;-71
2023/04/05 06:08:46;;;;;;;;;;;18.70;43.20;;;;;;10327713;28;920;-71
2023/04/05 06:13:41;;;;;;;;;;;18.70;43.30;;;;;;10326345;28;841;-72
2023/04/05 06:18:37;;;;;;;;;;;18.70;43.10;;;;;;10326810;28;846;-72
2023/04/05 06:23:32;;;;;;;;;;;18.70;43.00;;;;;;10325667;28;1898;-72
2023/04/05 06:28:28;;;;;;;;;;;18.70;43.20;;;;;;10326684;28;1023;-73
2023/04/05 06:33:23;;;;;;;;;;;18.60;43.10;;;;;;10325816;28;782;-73
2023/04/05 06:38:18;;;;;;;;;;;18.60;43.20;;;;;;10325604;28;1065;-82
2023/04/05 06:43:14;;;;;;;;;;;18.60;43.30;;;;;;10326372;28;1964;-82
2023/04/05 06:48:09;;;;;;;;;;;18.60;43.30;;;;;;10325562;28;895;-68
2023/04/05 06:53:05;;;;;;;;;;;18.70;43.30;;;;;;10325402;28;848;-69
2023/04/05 06:58:00;;;;;;;;;;;18.60;43.30;;;;;;10326389;28;1096;-69
2023/04/05 07:02:55;;;;;;;;;;;18.60;43.30;;;;;;10325163;28;1910;-69
2023/04/05 07:07:52;;;;;;;;;;;18.60;43.10;;;;;;10327013;28;1345;-67
2023/04/05 07:12:47;;;;;;;;;;;18.50;43.60;;;;;;10333392;28;905;-70
2023/04/05 07:17:42;;;;;;;;;;;18.50;43.20;;;;;;10333243;28;844;-70
2023/04/05 07:22:38;;;;;;;;;;;18.60;43.20;;;;;;10333747;28;1898;-69
2023/04/05 07:27:33;;;;;;;;;;;18.60;43.20;;;;;;10332993;28;877;-71
2023/04/05 07:32:29;;;;;;;;;;;18.60;43.20;;;;;;10333368;28;1583;-70
2023/04/05 07:37:26;;;;;;;;;;;18.60;43.40;;;;;;10332555;28;901;-70
2023/04/05 07:42:21;;;;;;;;;;;18.60;43.50;;;;;;10332079;28;1963;-71
2023/04/05 07:47:16;;;;;;;;;;;18.60;43.50;;;;;;10331981;28;861;-71
2023/04/05 07:52:12;;;;;;;;;;;18.60;43.50;;;;;;10331817;28;948;-70
2023/04/05 07:57:07;;;;;;;;;;;18.60;43.50;;;;;;10331699;28;1467;-81
2023/04/05 08:02:03;;;;;;;;;;;18.60;43.50;;;;;;10331964;28;1910;-79
2023/04/05 08:06:58;;;;;;;;;;;18.60;43.50;;;;;;10331246;28;742;-80
2023/04/05 08:11:53;;;;;;;;;;;18.60;43.50;;;;;;10331316;28;835;-79
2023/04/05 08:16:50;;;;;;;;;;;18.60;43.50;;;;;;10331530;28;857;-79
2023/04/05 08:21:46;;;;;;;;;;;18.60;43.70;;;;;;10330770;28;1967;-80
2023/04/05 08:26:42;;;;;;;;;;;18.60;43.70;;;;;;10330540;28;837;-79
2023/04/05 08:31:38;;;;;;;;;;;18.60;43.70;;;;;;10330314;28;879;-80
2023/04/05 08:36:33;;;;;;;;;;;18.70;43.60;;;;;;10330197;28;801;-79
2023/04/05 08:41:29;;;;;;;;;;;18.60;43.70;;;;;;10329935;28;1973;-79
2023/04/05 08:46:24;;;;;;;;;;;18.60;43.70;;;;;;10330575;28;874;-79
2023/04/05 08:51:20;;;;;;;;;;;18.60;43.60;;;;;;10329640;28;966;-79
2023/04/05 08:56:16;;;;;;;;;;;18.60;43.60;;;;;;10329516;28;1345;-80
2023/04/05 09:01:11;;;;;;;;;;;18.50;43.60;;;;;;10329072;28;1918;-79
2023/04/05 09:06:07;;;;;;;;;;;18.50;43.70;;;;;;10329754;28;825;-81
2023/04/05 09:11:02;;;;;;;;;;;18.50;43.60;;;;;;10328829;28;1003;-82
2023/04/05 09:15:57;;;;;;;;;;;18.50;43.80;;;;;;10329268;28;794;-77
2023/04/05 09:20:53;;;;;;;;;;;18.50;43.80;;;;;;10328981;28;1969;-78
2023/04/05 09:25:51;;;;;;;;;;;18.50;43.70;;;;;;10328239;28;1008;-77
2023/04/05 09:30:46;;;;;;;;;;;18.50;43.80;;;;;;10327705;28;868;-78
2023/04/05 09:35:42;;;;;;;;;;;18.50;43.80;;;;;;10327831;28;782;-78
2023/04/05 09:40:37;;;;;;;;;;;18.50;43.80;;;;;;10324578;28;1898;-78
2023/04/05 09:45:32;;;;;;;;;;;18.50;43.90;;;;;;10327371;28;921;-78
2023/04/05 09:50:28;;;;;;;;;;;18.50;43.90;;;;;;10326793;28;798;-78
2023/04/05 09:55:23;;;;;;;;;;;18.50;43.90;;;;;;10326992;28;1342;-77
2023/04/05 10:00:19;;;;;;;;;;;18.50;43.80;;;;;;10326972;28;1910;-78
2023/04/05 10:05:14;;;;;;;;;;;18.50;43.90;;;;;;10326615;28;875;-78
2023/04/05 10:10:11;;;;;;;;;;;18.50;43.80;;;;;;10326057;28;762;-78
2023/04/05 10:15:06;;;;;;;;;;;18.50;43.90;;;;;;10325721;28;1151;-79
2023/04/05 10:20:01;;;;;;;;;;;18.50;43.90;;;;;;10325492;28;1883;-78
2023/04/05 10:24:57;;;;;;;;;;;18.50;43.90;;;;;;10325959;28;952;-79
2023/04/05 10:29:52;;;;;;;;;;;18.60;43.90;;;;;;10326170;28;865;-70
2023/04/05 10:34:47;;;;;;;;;;;18.60;44.60;;;;;;10326257;28;936;-71
2023/04/05 10:39:43;;;;;;;;;;;18.60;44.10;;;;;;10325551;28;1971;-71
2023/04/05 10:44:38;;;;;;;;;;;18.70;43.90;;;;;;10325803;28;897;-71
2023/04/05 10:49:34;;;;;;;;;;;18.70;43.80;;;;;;10324268;28;964;-71
2023/04/05 10:54:29;;;;;;;;;;;18.70;43.90;;;;;;10325398;28;1238;-71
2023/04/05 10:59:25;;;;;;;;;;;18.80;44.00;;;;;;10325279;28;1963;-72
2023/04/05 11:04:20;;;;;;;;;;;18.70;44.10;;;;;;10325007;28;881;-71
2023/04/05 11:09:15;;;;;;;;;;;18.80;44.10;;;;;;10324532;28;1158;-70
2023/04/05 11:14:11;;;;;;;;;;;18.80;44.10;;;;;;10325220;28;859;-71
2023/04/05 11:19:06;;;;;;;;;;;18.80;44.00;;;;;;10324060;28;959;-71
2023/04/05 11:24:02;;;;;;;;;;;18.80;44.00;;;;;;10325037;28;761;-71
2023/04/05 11:28:58;;;;;;;;;;;18.90;43.90;;;;;;10324291;28;890;-71
2023/04/05 11:33:53;;;;;;;;;;;18.90;43.80;;;;;;10325149;28;994;-70
2023/04/05 11:38:49;;;;;;;;;;;18.90;43.80;;;;;;10324526;28;838;-75
2023/04/05 11:43:46;;;;;;;;;;;18.90;44.00;;;;;;10325281;28;1955;-70
2023/04/05 11:48:41;;;;;;;;;;;18.90;44.10;;;;;;10324393;28;837;-70
2023/04/05 11:53:37;;;;;;;;;;;18.90;44.10;;;;;;10326227;28;924;-70
2023/04/05 11:58:32;;;;;;;;;;;18.90;44.10;;;;;;10332722;28;1410;-69
2023/04/05 12:03:27;;;;;;;;;;;18.90;44.20;;;;;;10330815;28;1906;-70
2023/04/05 12:08:23;;;;;;;;;;;18.90;44.20;;;;;;10331851;28;823;-70
2023/04/05 12:13:18;;;;;;;;;;;18.90;44.00;;;;;;10331262;28;980;-70
2023/04/05 12:18:14;;;;;;;;;;;18.90;43.90;;;;;;10331538;28;734;-70
2023/04/05 12:23:10;;;;;;;;;;;18.90;44.10;;;;;;10330646;28;1902;-70
2023/04/05 12:28:07;;;;;;;;;;;18.90;44.20;;;;;;10330426;28;934;-70
2023/04/05 12:33:02;;;;;;;;;;;18.90;44.40;;;;;;10330913;28;947;-70
2023/04/05 12:37:58;;;;;;;;;;;18.90;44.50;;;;;;10330818;28;826;-70
2023/04/05 12:42:53;;;;;;;;;;;18.80;44.50;;;;;;10329631;28;1909;-69
2023/04/05 12:47:49;;;;;;;;;;;18.90;44.40;;;;;;10329660;28;910;-70
2023/04/05 12:52:44;;;;;;;;;;;18.80;44.60;;;;;;10329447;28;862;-70
2023/04/05 12:57:40;;;;;;;;;;;18.80;44.50;;;;;;10329120;28;1251;-69
2023/04/05 13:02:35;;;;;;;;;;;18.90;44.40;;;;;;10328872;28;1913;-70
2023/04/05 13:07:30;;;;;;;;;;;18.90;44.50;;;;;;10328785;28;900;-70
2023/04/05 13:12:26;;;;;;;;;;;19.00;44.60;;;;;;10328679;28;802;-70
2023/04/05 13:17:21;;;;;;;;;;;19.00;44.50;;;;;;10329042;28;860;-70
2023/04/05 13:22:16;;;;;;;;;;;19.10;44.60;;;;;;10327510;28;1910;-70
2023/04/05 13:27:12;;;;;;;;;;;19.10;44.50;;;;;;10328600;28;809;-70
2023/04/05 13:32:07;;;;;;;;;;;19.10;44.50;;;;;;10327739;28;874;-70
2023/04/05 13:37:02;;;;;;;;;;;19.10;44.50;;;;;;10327565;28;942;-70
2023/04/05 13:41:58;;;;;;;;;;;19.20;44.40;;;;;;10326719;28;1969;-70
2023/04/05 13:46:53;;;;;;;;;;;19.20;44.40;;;;;;10327746;28;970;-70
2023/04/05 13:51:49;;;;;;;;;;;19.20;44.30;;;;;;10326462;28;967;-70
2023/04/05 13:56:44;;;;;;;;;;;19.30;44.30;;;;;;10327094;28;1092;-70
2023/04/05 14:01:39;;;;;;;;;;;19.30;44.20;;;;;;10327238;28;1922;-71
2023/04/05 14:06:35;;;;;;;;;;;19.40;44.20;;;;;;10326676;28;990;-69
2023/04/05 14:11:30;;;;;;;;;;;19.40;44.10;;;;;;10326498;28;900;-75
2023/04/05 14:16:26;;;;;;;;;;;19.50;44.20;;;;;;10326687;28;875;-75
2023/04/05 14:21:22;;;;;;;;;;;19.60;44.20;;;;;;10326288;28;1910;-75
2023/04/05 14:26:18;;;;;;;;;;;19.70;44.10;;;;;;10326882;28;870;-75
2023/04/05 14:31:13;;;;;;;;;;;19.70;44.00;;;;;;10325996;28;775;-75
2023/04/05 14:36:08;;;;;;;;;;;19.90;43.90;;;;;;10326490;28;840;-77
2023/04/05 14:41:05;;;;;;;;;;;20.00;43.80;;;;;;10325713;28;1975;-75
2023/04/05 14:46:00;;;;;;;;;;;20.10;43.80;;;;;;10325617;28;1030;-76
2023/04/05 14:50:55;;;;;;;;;;;20.10;43.70;;;;;;10325576;28;776;-75
2023/04/05 14:55:51;;;;;;;;;;;20.10;43.70;;;;;;10326067;28;1176;-76
2023/04/05 15:00:46;;;;;;;;;;;20.20;43.50;;;;;;10325986;28;1905;-75
2023/04/05 15:05:42;;;;;;;;;;;20.30;43.60;;;;;;10325324;28;850;-75
2023/04/05 15:10:37;;;;;;;;;;;20.30;43.70;;;;;;10325091;28;934;-74
2023/04/05 15:15:32;;;;;;;;;;;20.40;43.70;;;;;;10325042;28;860;-74
2023/04/05 15:20:28;;;;;;;;;;;20.50;43.50;;;;;;10324912;28;1898;-74
2023/04/05 15:25:23;;;;;;;;;;;20.50;43.50;;;;;;10324565;28;975;-75
2023/04/05 15:30:19;;;;;;;;;;;20.50;43.50;;;;;;10329567;28;860;-75
2023/04/05 15:35:15;;;;;;;;;;;20.50;43.60;;;;;;10334056;28;840;-75
2023/04/05 15:40:10;;;;;;;;;;;20.60;43.50;;;;;;10332830;28;1959;-75
2023/04/05 15:45:05;;;;;;;;;;;20.60;43.70;;;;;;10331656;28;896;-75
2023/04/05 15:50:01;;;;;;;;;;;20.50;43.70;;;;;;10332004;28;1145;-76
2023/04/05 15:54:56;;;;;;;;;;;20.40;43.70;;;;;;10331529;28;1299;-75
2023/04/05 15:59:53;;;;;;;;;;;20.40;43.80;;;;;;10331677;28;1917;-75
2023/04/05 16:04:48;;;;;;;;;;;20.30;43.80;;;;;;10331393;28;1009;-75
2023/04/05 16:09:44;;;;;;;;;;;20.20;43.80;;;;;;10331925;28;866;-75
2023/04/05 16:14:39;;;;;;;;;;;20.20;43.80;;;;;;10331322;28;776;-75
2023/04/05 16:19:34;;;;;;;;;;;20.20;43.90;;;;;;10330835;28;1894;-75
2023/04/05 16:24:31;;;;;;;;;;;20.10;43.90;;;;;;10331340;28;806;-76
2023/04/05 16:29:27;;;;;;;;;;;20.10;43.90;;;;;;10330624;28;1546;-75
2023/04/05 16:34:22;;;;;;;;;;;20.00;44.00;;;;;;10330426;28;868;-75
2023/04/05 16:39:18;;;;;;;;;;;19.90;43.90;;;;;;10329869;28;897;-75
2023/04/05 16:44:13;;;;;;;;;;;19.90;43.90;;;;;;10329488;28;905;-76
2023/04/05 16:49:09;;;;;;;;;;;19.90;43.80;;;;;;10330741;28;809;-75
2023/04/05 16:54:04;;;;;;;;;;;19.90;43.90;;;;;;10330220;28;1082;-76
2023/04/05 16:58:59;;;;;;;;;;;19.90;43.90;;;;;;10329510;28;875;-75
2023/04/05 17:03:58;;;;;;;;;;;19.80;43.80;;;;;;10329133;28;1959;-75
2023/04/05 17:08:53;;;;;;;;;;;19.90;43.80;;;;;;10329097;28;757;-75
2023/04/05 17:13:49;;;;;;;;;;;19.80;43.70;;;;;;10328855;28;877;-75
2023/04/05 17:18:44;;;;;;;;;;;19.80;43.80;;;;;;10328734;28;797;-75
2023/04/05 17:23:40;;;;;;;;;;;19.80;43.80;;;;;;10328423;28;1964;-75
2023/04/05 17:28:35;;;;;;;;;;;19.80;43.80;;;;;;10328329;28;884;-75
2023/04/05 17:33:31;;;;;;;;;;;19.80;43.90;;;;;;10328024;28;758;-76
2023/04/05 17:38:26;;;;;;;;;;;19.70;43.80;;;;;;10327813;28;788;-76
2023/04/05 17:43:22;;;;;;;;;;;19.80;43.90;;;;;;10328231;28;1968;-76
2023/04/05 17:48:17;;;;;;;;;;;19.80;43.90;;;;;;10327395;28;927;-76
2023/04/05 17:53:13;;;;;;;;;;;19.80;43.90;;;;;;10325843;28;894;-76
2023/04/05 17:58:08;;;;;;;;;;;19.80;43.80;;;;;;10326411;28;1334;-76
2023/04/05 18:03:04;;;;;;;;;;;19.80;43.80;;;;;;10326833;28;1914;-76
2023/04/05 18:07:59;;;;;;;;;;;19.70;43.90;;;;;;10326737;28;801;-76
2023/04/05 18:12:55;;;;;;;;;;;19.80;43.90;;;;;;10326484;28;894;-76
2023/04/05 18:17:50;;;;;;;;;;;19.80;43.80;;;;;;10326360;28;887;-76
2023/04/05 18:22:46;;;;;;;;;;;19.80;43.90;;;;;;10326224;28;1967;-77
2023/04/05 18:27:41;;;;;;;;;;;19.80;44.40;;;;;;10326623;28;1039;-77
2023/04/05 18:32:36;;;;;;;;;;;19.80;43.80;;;;;;10326569;28;830;-76
2023/04/05 18:37:32;;;;;;;;;;;19.70;43.60;;;;;;10325880;28;913;-77
2023/04/05 18:42:27;;;;;;;;;;;19.70;43.50;;;;;;10325109;28;1965;-78
2023/04/05 18:47:23;;;;;;;;;;;19.70;43.60;;;;;;10325652;28;882;-77
2023/04/05 18:52:22;;;;;;;;;;;19.80;43.60;;;;;;10325863;28;810;-77
2023/04/05 18:57:18;;;;;;;;;;;19.70;43.50;;;;;;10325590;28;1240;-80
2023/04/05 19:02:13;;;;;;;;;;;19.70;43.60;;;;;;10327012;28;1910;-77
2023/04/05 19:07:08;;;;;;;;;;;19.70;43.40;;;;;;10338810;28;773;-77
2023/04/05 19:12:04;;;;;;;;;;;19.70;43.40;;;;;;10338723;28;947;-70
2023/04/05 19:16:59;;;;;;;;;;;19.70;43.60;;;;;;10338573;28;930;-72
2023/04/05 19:21:58;;;;;;;;;;;19.70;43.50;;;;;;10339065;28;1967;-72
2023/04/05 19:26:53;;;;;;;;;;;19.70;43.60;;;;;;10339064;28;846;-72
2023/04/05 19:31:49;;;;;;;;;;;19.70;43.70;;;;;;10339058;28;778;-72
2023/04/05 19:36:44;;;;;;;;;;;19.70;43.60;;;;;;10338851;28;854;-72
2023/04/05 19:41:40;;;;;;;;;;;19.70;43.50;;;;;;10338578;28;1973;-71
2023/04/05 19:46:38;;;;;;;;;;;19.70;43.50;;;;;;10338087;28;793;-71
2023/04/05 19:51:34;;;;;;;;;;;19.70;44.10;;;;;;10338032;28;752;-71
2023/04/05 19:56:31;;;;;;;;;;;19.70;43.50;;;;;;10338068;28;1212;-71
2023/04/05 20:01:26;;;;;;;;;;;19.70;43.50;;;;;;10337659;28;1909;-72
2023/04/05 20:06:21;;;;;;;;;;;19.60;43.50;;;;;;10337761;28;750;-72
2023/04/05 20:11:17;;;;;;;;;;;19.70;43.50;;;;;;10338279;28;830;-72
2023/04/05 20:16:12;;;;;;;;;;;19.70;43.50;;;;;;10332757;28;882;-71
2023/04/05 20:21:08;;;;;;;;;;;19.60;43.40;;;;;;10330846;28;1894;-71
2023/04/05 20:26:03;;;;;;;;;;;19.60;43.50;;;;;;10330805;28;743;-71
2023/04/05 20:30:58;;;;;;;;;;;19.60;43.50;;;;;;10330022;28;1062;-71
2023/04/05 20:35:54;;;;;;;;;;;19.60;43.50;;;;;;10331074;28;856;-71
2023/04/05 20:40:49;;;;;;;;;;;19.70;43.50;;;;;;10330204;28;1957;-72
2023/04/05 20:45:45;;;;;;;;;;;19.70;43.40;;;;;;10330030;28;845;-72
2023/04/05 20:50:41;;;;;;;;;;;19.60;43.40;;;;;;10330885;28;814;-72
2023/04/05 20:55:36;;;;;;;;;;;19.60;43.50;;;;;;10329671;28;1207;-71
2023/04/05 21:00:32;;;;;;;;;;;19.60;43.50;;;;;;10330614;28;1906;-71
2023/04/05 21:05:28;;;;;;;;;;;19.60;43.50;;;;;;10329263;28;878;-71
2023/04/05 21:10:23;;;;;;;;;;;19.60;43.40;;;;;;10328438;28;1054;-71
2023/04/05 21:15:18;;;;;;;;;;;19.70;43.40;;;;;;10329530;28;865;-71
2023/04/05 21:20:14;;;;;;;;;;;19.60;43.30;;;;;;10329148;28;1961;-71
2023/04/05 21:25:09;;;;;;;;;;;19.60;43.40;;;;;;10327749;28;1039;-72
2023/04/05 21:30:05;;;;;;;;;;;19.60;43.30;;;;;;10328141;28;786;-72
2023/04/05 21:35:00;;;;;;;;;;;19.60;43.40;;;;;;10328226;28;766;-72
2023/04/05 21:39:56;;;;;;;;;;;19.50;43.30;;;;;;10328377;28;1901;-72
2023/04/05 21:44:51;;;;;;;;;;;19.60;43.30;;;;;;10327574;28;795;-72
2023/04/05 21:49:46;;;;;;;;;;;19.60;43.30;;;;;;10328193;28;856;-72
2023/04/05 21:54:42;;;;;;;;;;;19.60;43.30;;;;;;10327543;28;1309;-72
2023/04/05 21:59:37;;;;;;;;;;;19.60;43.30;;;;;;10327055;28;1961;-72
2023/04/05 22:04:33;;;;;;;;;;;19.50;43.30;;;;;;10327010;28;802;-72
2023/04/05 22:09:28;;;;;;;;;;;19.60;43.30;;;;;;10326685;28;877;-72
2023/04/05 22:14:23;;;;;;;;;;;19.50;43.20;;;;;;10326618;28;762;-72
2023/04/05 22:19:19;;;;;;;;;;;19.60;43.20;;;;;;10326442;28;874;-72
2023/04/05 22:24:14;;;;;;;;;;;19.50;43.20;;;;;;10326115;28;1893;-72
2023/04/05 22:29:10;;;;;;;;;;;19.50;43.20;;;;;;10326165;28;960;-72
2023/04/05 22:34:05;;;;;;;;;;;19.50;43.20;;;;;;10327049;28;849;-72
2023/04/05 22:39:01;;;;;;;;;;;19.50;43.20;;;;;;10325493;28;846;-72
2023/04/05 22:43:56;;;;;;;;;;;19.50;43.10;;;;;;10325700;28;1902;-71
2023/04/05 22:48:51;;;;;;;;;;;19.50;43.10;;;;;;10325047;28;896;-71
2023/04/05 22:53:47;;;;;;;;;;;19.40;43.10;;;;;;10325403;28;1089;-71
2023/04/05 22:58:42;;;;;;;;;;;19.40;43.10;;;;;;10326657;28;1192;-71
2023/04/05 23:03:38;;;;;;;;;;;19.50;43.10;;;;;;10324680;28;1901;-72
2023/04/05 23:08:34;;;;;;;;;;;19.40;43.10;;;;;;10325884;28;871;-72
2023/04/05 23:13:29;;;;;;;;;;;19.40;43.10;;;;;;10325190;28;837;-71
2023/04/05 23:18:26;;;;;;;;;;;19.50;43.00;;;;;;10325915;28;850;-71
2023/04/05 23:23:21;;;;;;;;;;;19.50;43.00;;;;;;10324797;28;1894;-71
2023/04/05 23:28:16;;;;;;;;;;;19.40;42.90;;;;;;10325454;28;893;-71
2023/04/05 23:33:12;;;;;;;;;;;19.40;42.90;;;;;;10324691;28;882;-71
2023/04/05 23:38:07;;;;;;;;;;;19.50;43.10;;;;;;10324080;28;937;-71
2023/04/05 23:43:02;;;;;;;;;;;19.40;42.90;;;;;;10324683;28;1897;-71
2023/04/05 23:47:58;;;;;;;;;;;19.40;42.90;;;;;;10324413;28;865;-71
2023/04/05 23:52:53;;;;;;;;;;;19.40;42.80;;;;;;10330915;28;778;-71
2023/04/05 23:57:50;;;;;;;;;;;19.40;42.90;;;;;;10332202;28;1481;-71
